sensor_id;sensor_type;location;lat;lon;timestamp;P1;durP1;ratioP1;P2;durP2;ratioP2
34403;SDS011;23116;47.660;9.126;2024-02-26T00:00:25;0.95;;;0.90;;
34403;SDS011;23116;47.660;9.126;2024-02-26T00:02:54;1.13;;;0.75;;
34403;SDS011;23116;47.660;9.126;2024-02-26T00:05:21;0.80;;;0.80;;
34403;SDS011;23116;47.660;9.126;2024-02-26T00:07:48;1.98;;;1.05;;
34403;SDS011;23116;47.660;9.126;2024-02-26T00:10:15;0.90;;;0.90;;
34403;SDS011;23116;47.660;9.126;2024-02-26T00:12:43;1.13;;;1.02;;
34403;SDS011;23116;47.660;9.126;2024-02-26T00:15:10;1.85;;;1.20;;
34403;SDS011;23116;47.660;9.126;2024-02-26T00:17:37;1.40;;;1.30;;
34403;SDS011;23116;47.660;9.126;2024-02-26T00:20:05;1.02;;;0.98;;
34403;SDS011;23116;47.660;9.126;2024-02-26T00:22:35;0.82;;;0.80;;
34403;SDS011;23116;47.660;9.126;2024-02-26T00:25:02;0.95;;;0.80;;
34403;SDS011;23116;47.660;9.126;2024-02-26T00:27:31;1.65;;;0.80;;
34403;SDS011;23116;47.660;9.126;2024-02-26T00:29:58;0.80;;;0.80;;
34403;SDS011;23116;47.660;9.126;2024-02-26T00:32:25;0.70;;;0.70;;
34403;SDS011;23116;47.660;9.126;2024-02-26T00:34:52;1.00;;;0.80;;
34403;SDS011;23116;47.660;9.126;2024-02-26T00:37:19;0.98;;;0.63;;
34403;SDS011;23116;47.660;9.126;2024-02-26T00:39:46;0.80;;;0.80;;
34403;SDS011;23116;47.660;9.126;2024-02-26T00:42:14;0.77;;;0.77;;
34403;SDS011;23116;47.660;9.126;2024-02-26T00:44:41;1.63;;;1.25;;
34403;SDS011;23116;47.660;9.126;2024-02-26T00:47:08;1.08;;;1.00;;
34403;SDS011;23116;47.660;9.126;2024-02-26T00:49:36;1.23;;;1.13;;
34403;SDS011;23116;47.660;9.126;2024-02-26T00:52:03;1.55;;;1.45;;
34403;SDS011;23116;47.660;9.126;2024-02-26T00:54:31;2.88;;;1.20;;
34403;SDS011;23116;47.660;9.126;2024-02-26T00:56:58;1.33;;;1.23;;
34403;SDS011;23116;47.660;9.126;2024-02-26T00:59:25;1.75;;;1.60;;
34403;SDS011;23116;47.660;9.126;2024-02-26T01:01:52;2.22;;;1.88;;
34403;SDS011;23116;47.660;9.126;2024-02-26T01:04:19;1.52;;;1.40;;
34403;SDS011;23116;47.660;9.126;2024-02-26T01:06:46;1.83;;;1.65;;
34403;SDS011;23116;47.660;9.126;2024-02-26T01:09:13;1.80;;;1.58;;
34403;SDS011;23116;47.660;9.126;2024-02-26T01:11:42;1.45;;;1.35;;
34403;SDS011;23116;47.660;9.126;2024-02-26T01:14:09;1.40;;;1.10;;
34403;SDS011;23116;47.660;9.126;2024-02-26T01:16:36;1.67;;;1.40;;
34403;SDS011;23116;47.660;9.126;2024-02-26T01:19:04;1.40;;;1.30;;
34403;SDS011;23116;47.660;9.126;2024-02-26T01:21:31;1.88;;;1.30;;
34403;SDS011;23116;47.660;9.126;2024-02-26T01:23:58;1.40;;;1.30;;
34403;SDS011;23116;47.660;9.126;2024-02-26T01:26:25;1.20;;;1.10;;
34403;SDS011;23116;47.660;9.126;2024-02-26T01:28:52;1.75;;;1.50;;
34403;SDS011;23116;47.660;9.126;2024-02-26T01:31:20;1.50;;;1.40;;
34403;SDS011;23116;47.660;9.126;2024-02-26T01:33:47;1.50;;;1.40;;
34403;SDS011;23116;47.660;9.126;2024-02-26T01:36:14;2.25;;;1.45;;
34403;SDS011;23116;47.660;9.126;2024-02-26T01:38:42;1.88;;;1.55;;
34403;SDS011;23116;47.660;9.126;2024-02-26T01:41:09;1.00;;;1.00;;
34403;SDS011;23116;47.660;9.126;2024-02-26T01:43:36;1.40;;;1.27;;
34403;SDS011;23116;47.660;9.126;2024-02-26T01:46:03;1.15;;;1.10;;
34403;SDS011;23116;47.660;9.126;2024-02-26T01:48:31;1.30;;;1.20;;
34403;SDS011;23116;47.660;9.126;2024-02-26T01:50:58;2.40;;;1.38;;
34403;SDS011;23116;47.660;9.126;2024-02-26T01:53:25;1.40;;;1.30;;
34403;SDS011;23116;47.660;9.126;2024-02-26T01:55:52;1.48;;;1.27;;
34403;SDS011;23116;47.660;9.126;2024-02-26T01:58:20;1.08;;;1.05;;
34403;SDS011;23116;47.660;9.126;2024-02-26T02:00:47;1.40;;;1.20;;
34403;SDS011;23116;47.660;9.126;2024-02-26T02:03:14;1.42;;;1.08;;
34403;SDS011;23116;47.660;9.126;2024-02-26T02:05:42;1.83;;;1.20;;
34403;SDS011;23116;47.660;9.126;2024-02-26T02:08:13;1.27;;;1.17;;
34403;SDS011;23116;47.660;9.126;2024-02-26T02:10:41;1.30;;;1.20;;
34403;SDS011;23116;47.660;9.126;2024-02-26T02:13:08;1.23;;;1.10;;
34403;SDS011;23116;47.660;9.126;2024-02-26T02:15:35;1.02;;;0.95;;
34403;SDS011;23116;47.660;9.126;2024-02-26T02:18:02;1.23;;;1.13;;
34403;SDS011;23116;47.660;9.126;2024-02-26T02:20:33;0.90;;;0.90;;
34403;SDS011;23116;47.660;9.126;2024-02-26T02:23:02;0.88;;;0.80;;
34403;SDS011;23116;47.660;9.126;2024-02-26T02:25:29;1.00;;;0.90;;
34403;SDS011;23116;47.660;9.126;2024-02-26T02:27:56;0.70;;;0.70;;
34403;SDS011;23116;47.660;9.126;2024-02-26T02:30:24;0.77;;;0.77;;
34403;SDS011;23116;47.660;9.126;2024-02-26T02:32:56;0.63;;;0.63;;
34403;SDS011;23116;47.660;9.126;2024-02-26T02:35:24;1.17;;;0.80;;
34403;SDS011;23116;47.660;9.126;2024-02-26T02:37:51;1.05;;;0.95;;
34403;SDS011;23116;47.660;9.126;2024-02-26T02:40:21;0.75;;;0.75;;
34403;SDS011;23116;47.660;9.126;2024-02-26T02:42:48;0.80;;;0.70;;
34403;SDS011;23116;47.660;9.126;2024-02-26T04:12:02;1.20;;;1.10;;
34403;SDS011;23116;47.660;9.126;2024-02-26T04:14:30;3.83;;;1.15;;
34403;SDS011;23116;47.660;9.126;2024-02-26T04:16:57;1.00;;;1.00;;
34403;SDS011;23116;47.660;9.126;2024-02-26T04:19:24;1.33;;;0.95;;
34403;SDS011;23116;47.660;9.126;2024-02-26T04:21:51;1.50;;;1.30;;
34403;SDS011;23116;47.660;9.126;2024-02-26T04:24:19;1.55;;;1.10;;
34403;SDS011;23116;47.660;9.126;2024-02-26T04:26:46;0.88;;;0.88;;
34403;SDS011;23116;47.660;9.126;2024-02-26T04:29:15;0.85;;;0.70;;
34403;SDS011;23116;47.660;9.126;2024-02-26T04:31:42;0.85;;;0.85;;
34403;SDS011;23116;47.660;9.126;2024-02-26T04:34:11;0.70;;;0.70;;
34403;SDS011;23116;47.660;9.126;2024-02-26T04:36:38;0.82;;;0.80;;
34403;SDS011;23116;47.660;9.126;2024-02-26T04:39:05;1.00;;;0.75;;
34403;SDS011;23116;47.660;9.126;2024-02-26T04:41:32;0.80;;;0.80;;
34403;SDS011;23116;47.660;9.126;2024-02-26T04:43:59;1.08;;;0.88;;
34403;SDS011;23116;47.660;9.126;2024-02-26T04:46:27;1.58;;;1.10;;
34403;SDS011;23116;47.660;9.126;2024-02-26T04:48:54;0.85;;;0.80;;
34403;SDS011;23116;47.660;9.126;2024-02-26T04:51:21;0.90;;;0.60;;
34403;SDS011;23116;47.660;9.126;2024-02-26T04:53:48;0.70;;;0.70;;
34403;SDS011;23116;47.660;9.126;2024-02-26T04:56:15;1.80;;;1.00;;
34403;SDS011;23116;47.660;9.126;2024-02-26T04:58:43;1.00;;;0.90;;
34403;SDS011;23116;47.660;9.126;2024-02-26T05:01:10;1.00;;;0.80;;
34403;SDS011;23116;47.660;9.126;2024-02-26T05:03:37;1.58;;;1.15;;
34403;SDS011;23116;47.660;9.126;2024-02-26T05:06:05;1.00;;;0.90;;
34403;SDS011;23116;47.660;9.126;2024-02-26T05:08:32;1.05;;;0.80;;
34403;SDS011;23116;47.660;9.126;2024-02-26T05:11:01;1.10;;;0.82;;
34403;SDS011;23116;47.660;9.126;2024-02-26T05:13:29;1.52;;;0.90;;
34403;SDS011;23116;47.660;9.126;2024-02-26T05:15:56;1.20;;;1.10;;
34403;SDS011;23116;47.660;9.126;2024-02-26T05:18:23;1.00;;;0.70;;
34403;SDS011;23116;47.660;9.126;2024-02-26T05:20:50;3.42;;;1.13;;
34403;SDS011;23116;47.660;9.126;2024-02-26T05:23:17;0.93;;;0.90;;
34403;SDS011;23116;47.660;9.126;2024-02-26T05:25:44;0.77;;;0.70;;
34403;SDS011;23116;47.660;9.126;2024-02-26T05:28:13;1.25;;;0.98;;
34403;SDS011;23116;47.660;9.126;2024-02-26T05:30:45;1.60;;;1.00;;
34403;SDS011;23116;47.660;9.126;2024-02-26T05:33:13;0.82;;;0.82;;
34403;SDS011;23116;47.660;9.126;2024-02-26T05:35:40;2.58;;;0.90;;
34403;SDS011;23116;47.660;9.126;2024-02-26T05:38:07;0.88;;;0.82;;
34403;SDS011;23116;47.660;9.126;2024-02-26T05:40:34;1.05;;;0.93;;
34403;SDS011;23116;47.660;9.126;2024-02-26T05:43:01;1.88;;;1.20;;
34403;SDS011;23116;47.660;9.126;2024-02-26T05:45:29;1.10;;;1.00;;
34403;SDS011;23116;47.660;9.126;2024-02-26T05:47:56;1.10;;;1.00;;
34403;SDS011;23116;47.660;9.126;2024-02-26T05:50:23;0.80;;;0.80;;
34403;SDS011;23116;47.660;9.126;2024-02-26T05:52:50;0.98;;;0.85;;
34403;SDS011;23116;47.660;9.126;2024-02-26T05:55:17;1.60;;;1.30;;
34403;SDS011;23116;47.660;9.126;2024-02-26T05:57:44;1.40;;;1.30;;
34403;SDS011;23116;47.660;9.126;2024-02-26T06:00:12;1.63;;;1.30;;
34403;SDS011;23116;47.660;9.126;2024-02-26T06:02:39;1.30;;;1.20;;
34403;SDS011;23116;47.660;9.126;2024-02-26T06:05:06;1.52;;;1.42;;
34403;SDS011;23116;47.660;9.126;2024-02-26T06:07:34;1.77;;;1.52;;
34403;SDS011;23116;47.660;9.126;2024-02-26T06:10:02;2.67;;;1.70;;
34403;SDS011;23116;47.660;9.126;2024-02-26T06:12:30;1.60;;;1.50;;
34403;SDS011;23116;47.660;9.126;2024-02-26T06:15:00;5.57;;;1.27;;
34403;SDS011;23116;47.660;9.126;2024-02-26T06:17:27;2.03;;;1.38;;
34403;SDS011;23116;47.660;9.126;2024-02-26T06:19:54;1.60;;;1.30;;
34403;SDS011;23116;47.660;9.126;2024-02-26T06:22:21;1.38;;;1.27;;
34403;SDS011;23116;47.660;9.126;2024-02-26T06:24:49;1.00;;;0.90;;
34403;SDS011;23116;47.660;9.126;2024-02-26T06:27:16;1.38;;;1.23;;
34403;SDS011;23116;47.660;9.126;2024-02-26T06:29:43;1.33;;;1.15;;
34403;SDS011;23116;47.660;9.126;2024-02-26T06:32:13;1.10;;;0.90;;
34403;SDS011;23116;47.660;9.126;2024-02-26T06:34:41;1.67;;;1.10;;
34403;SDS011;23116;47.660;9.126;2024-02-26T06:37:08;0.95;;;0.95;;
34403;SDS011;23116;47.660;9.126;2024-02-26T06:39:35;1.10;;;1.00;;
34403;SDS011;23116;47.660;9.126;2024-02-26T06:42:03;1.17;;;1.08;;
34403;SDS011;23116;47.660;9.126;2024-02-26T06:44:31;1.70;;;1.60;;
34403;SDS011;23116;47.660;9.126;2024-02-26T06:46:59;1.77;;;1.50;;
34403;SDS011;23116;47.660;9.126;2024-02-26T06:49:27;2.33;;;1.30;;
34403;SDS011;23116;47.660;9.126;2024-02-26T06:51:55;1.60;;;1.50;;
34403;SDS011;23116;47.660;9.126;2024-02-26T06:54:22;3.28;;;2.35;;
34403;SDS011;23116;47.660;9.126;2024-02-26T06:56:49;2.00;;;1.70;;
34403;SDS011;23116;47.660;9.126;2024-02-26T06:59:16;2.90;;;1.73;;
34403;SDS011;23116;47.660;9.126;2024-02-26T07:01:45;1.65;;;1.40;;
34403;SDS011;23116;47.660;9.126;2024-02-26T07:04:12;2.28;;;1.40;;
34403;SDS011;23116;47.660;9.126;2024-02-26T07:06:39;2.03;;;1.48;;
34403;SDS011;23116;47.660;9.126;2024-02-26T07:09:08;1.35;;;1.25;;
34403;SDS011;23116;47.660;9.126;2024-02-26T07:11:37;1.30;;;1.20;;
34403;SDS011;23116;47.660;9.126;2024-02-26T07:14:07;2.53;;;1.30;;
34403;SDS011;23116;47.660;9.126;2024-02-26T07:16:35;1.30;;;1.20;;
34403;SDS011;23116;47.660;9.126;2024-02-26T07:19:02;1.60;;;1.50;;
34403;SDS011;23116;47.660;9.126;2024-02-26T07:21:30;2.03;;;1.40;;
34403;SDS011;23116;47.660;9.126;2024-02-26T07:23:57;1.88;;;1.40;;
34403;SDS011;23116;47.660;9.126;2024-02-26T07:26:24;2.47;;;1.55;;
34403;SDS011;23116;47.660;9.126;2024-02-26T07:28:51;1.52;;;1.35;;
34403;SDS011;23116;47.660;9.126;2024-02-26T07:31:18;1.58;;;1.40;;
34403;SDS011;23116;47.660;9.126;2024-02-26T07:33:46;2.65;;;1.60;;
34403;SDS011;23116;47.660;9.126;2024-02-26T07:36:13;1.92;;;1.52;;
34403;SDS011;23116;47.660;9.126;2024-02-26T07:38:40;1.75;;;1.10;;
34403;SDS011;23116;47.660;9.126;2024-02-26T07:41:07;1.88;;;1.67;;
34403;SDS011;23116;47.660;9.126;2024-02-26T07:43:35;1.92;;;1.55;;
34403;SDS011;23116;47.660;9.126;2024-02-26T07:46:02;2.38;;;1.77;;
34403;SDS011;23116;47.660;9.126;2024-02-26T07:48:29;2.25;;;1.63;;
34403;SDS011;23116;47.660;9.126;2024-02-26T07:50:56;1.80;;;1.50;;
34403;SDS011;23116;47.660;9.126;2024-02-26T07:53:25;1.75;;;1.50;;
34403;SDS011;23116;47.660;9.126;2024-02-26T07:55:52;2.45;;;1.60;;
34403;SDS011;23116;47.660;9.126;2024-02-26T07:58:19;2.97;;;1.63;;
34403;SDS011;23116;47.660;9.126;2024-02-26T08:00:47;1.75;;;1.48;;
34403;SDS011;23116;47.660;9.126;2024-02-26T08:03:14;1.50;;;1.40;;
34403;SDS011;23116;47.660;9.126;2024-02-26T08:05:42;1.67;;;1.35;;
34403;SDS011;23116;47.660;9.126;2024-02-26T08:08:09;1.85;;;1.40;;
34403;SDS011;23116;47.660;9.126;2024-02-26T08:10:36;2.17;;;1.33;;
34403;SDS011;23116;47.660;9.126;2024-02-26T08:13:03;1.83;;;1.52;;
34403;SDS011;23116;47.660;9.126;2024-02-26T08:15:31;1.60;;;1.30;;
34403;SDS011;23116;47.660;9.126;2024-02-26T08:18:02;2.53;;;1.75;;
34403;SDS011;23116;47.660;9.126;2024-02-26T08:20:30;3.33;;;1.60;;
34403;SDS011;23116;47.660;9.126;2024-02-26T08:22:58;1.67;;;1.45;;
34403;SDS011;23116;47.660;9.126;2024-02-26T08:25:25;2.83;;;1.58;;
34403;SDS011;23116;47.660;9.126;2024-02-26T08:27:52;5.93;;;2.50;;
34403;SDS011;23116;47.660;9.126;2024-02-26T08:30:19;2.42;;;2.13;;
34403;SDS011;23116;47.660;9.126;2024-02-26T08:32:47;2.10;;;1.85;;
34403;SDS011;23116;47.660;9.126;2024-02-26T08:35:14;2.33;;;2.03;;
34403;SDS011;23116;47.660;9.126;2024-02-26T08:37:45;2.00;;;1.80;;
34403;SDS011;23116;47.660;9.126;2024-02-26T08:40:13;2.95;;;1.92;;
34403;SDS011;23116;47.660;9.126;2024-02-26T08:42:40;3.15;;;1.80;;
34403;SDS011;23116;47.660;9.126;2024-02-26T08:45:08;1.40;;;1.30;;
34403;SDS011;23116;47.660;9.126;2024-02-26T08:47:37;1.50;;;1.40;;
34403;SDS011;23116;47.660;9.126;2024-02-26T08:50:04;1.63;;;1.38;;
34403;SDS011;23116;47.660;9.126;2024-02-26T08:52:34;1.50;;;1.13;;
34403;SDS011;23116;47.660;9.126;2024-02-26T08:55:01;2.17;;;1.65;;
34403;SDS011;23116;47.660;9.126;2024-02-26T08:57:30;1.30;;;1.20;;
34403;SDS011;23116;47.660;9.126;2024-02-26T09:00:00;1.85;;;1.17;;
34403;SDS011;23116;47.660;9.126;2024-02-26T09:02:28;1.60;;;1.30;;
34403;SDS011;23116;47.660;9.126;2024-02-26T09:04:55;1.33;;;1.23;;
34403;SDS011;23116;47.660;9.126;2024-02-26T09:07:22;2.10;;;1.33;;
34403;SDS011;23116;47.660;9.126;2024-02-26T09:09:49;1.50;;;1.35;;
34403;SDS011;23116;47.660;9.126;2024-02-26T09:12:16;1.48;;;1.35;;
34403;SDS011;23116;47.660;9.126;2024-02-26T09:14:44;1.40;;;1.30;;
34403;SDS011;23116;47.660;9.126;2024-02-26T09:17:11;2.08;;;1.50;;
34403;SDS011;23116;47.660;9.126;2024-02-26T09:19:39;1.40;;;1.25;;
34403;SDS011;23116;47.660;9.126;2024-02-26T09:22:07;1.52;;;1.20;;
34403;SDS011;23116;47.660;9.126;2024-02-26T09:24:34;1.83;;;1.38;;
34403;SDS011;23116;47.660;9.126;2024-02-26T09:27:02;1.50;;;1.13;;
34403;SDS011;23116;47.660;9.126;2024-02-26T09:29:29;1.60;;;1.27;;
34403;SDS011;23116;47.660;9.126;2024-02-26T09:32:02;1.95;;;1.45;;
34403;SDS011;23116;47.660;9.126;2024-02-26T09:34:30;1.25;;;1.15;;
34403;SDS011;23116;47.660;9.126;2024-02-26T09:36:57;1.63;;;1.52;;
34403;SDS011;23116;47.660;9.126;2024-02-26T09:39:24;1.35;;;1.25;;
34403;SDS011;23116;47.660;9.126;2024-02-26T09:41:52;1.17;;;1.08;;
34403;SDS011;23116;47.660;9.126;2024-02-26T09:44:20;1.40;;;1.30;;
34403;SDS011;23116;47.660;9.126;2024-02-26T09:46:48;1.40;;;1.30;;
34403;SDS011;23116;47.660;9.126;2024-02-26T09:49:18;1.52;;;1.20;;
34403;SDS011;23116;47.660;9.126;2024-02-26T09:51:49;1.53;;;1.03;;
34403;SDS011;23116;47.660;9.126;2024-02-26T09:54:16;1.27;;;1.10;;
34403;SDS011;23116;47.660;9.126;2024-02-26T09:56:43;1.20;;;1.10;;
34403;SDS011;23116;47.660;9.126;2024-02-26T09:59:16;1.88;;;1.20;;
34403;SDS011;23116;47.660;9.126;2024-02-26T10:01:44;1.30;;;1.20;;
34403;SDS011;23116;47.660;9.126;2024-02-26T10:04:12;1.10;;;1.10;;
34403;SDS011;23116;47.660;9.126;2024-02-26T10:06:40;1.33;;;1.23;;
34403;SDS011;23116;47.660;9.126;2024-02-26T10:09:09;1.38;;;1.27;;
34403;SDS011;23116;47.660;9.126;2024-02-26T10:11:37;1.17;;;1.05;;
34403;SDS011;23116;47.660;9.126;2024-02-26T10:14:05;1.23;;;0.90;;
34403;SDS011;23116;47.660;9.126;2024-02-26T10:16:32;1.10;;;0.98;;
34403;SDS011;23116;47.660;9.126;2024-02-26T10:19:00;1.10;;;1.10;;
34403;SDS011;23116;47.660;9.126;2024-02-26T10:21:27;1.17;;;1.00;;
34403;SDS011;23116;47.660;9.126;2024-02-26T10:23:54;0.80;;;0.80;;
34403;SDS011;23116;47.660;9.126;2024-02-26T10:26:21;0.85;;;0.75;;
34403;SDS011;23116;47.660;9.126;2024-02-26T10:28:48;0.90;;;0.80;;
34403;SDS011;23116;47.660;9.126;2024-02-26T10:31:16;1.08;;;0.90;;
34403;SDS011;23116;47.660;9.126;2024-02-26T10:33:43;0.85;;;0.85;;
34403;SDS011;23116;47.660;9.126;2024-02-26T10:36:10;1.05;;;0.90;;
34403;SDS011;23116;47.660;9.126;2024-02-26T10:38:37;1.30;;;0.95;;
34403;SDS011;23116;47.660;9.126;2024-02-26T10:41:08;1.20;;;1.00;;
34403;SDS011;23116;47.660;9.126;2024-02-26T10:43:41;1.17;;;1.08;;
34403;SDS011;23116;47.660;9.126;2024-02-26T10:46:09;1.00;;;1.00;;
34403;SDS011;23116;47.660;9.126;2024-02-26T10:48:36;1.00;;;0.98;;
34403;SDS011;23116;47.660;9.126;2024-02-26T10:51:04;2.03;;;1.08;;
34403;SDS011;23116;47.660;9.126;2024-02-26T10:53:33;1.33;;;0.90;;
34403;SDS011;23116;47.660;9.126;2024-02-26T10:56:03;1.40;;;1.25;;
34403;SDS011;23116;47.660;9.126;2024-02-26T10:58:31;2.30;;;1.10;;
34403;SDS011;23116;47.660;9.126;2024-02-26T11:00:58;1.38;;;1.20;;
34403;SDS011;23116;47.660;9.126;2024-02-26T11:03:26;1.08;;;0.90;;
34403;SDS011;23116;47.660;9.126;2024-02-26T11:05:57;1.63;;;1.20;;
34403;SDS011;23116;47.660;9.126;2024-02-26T11:08:25;1.42;;;1.20;;
34403;SDS011;23116;47.660;9.126;2024-02-26T11:10:53;0.88;;;0.88;;
34403;SDS011;23116;47.660;9.126;2024-02-26T11:13:22;1.30;;;1.17;;
34403;SDS011;23116;47.660;9.126;2024-02-26T11:15:55;1.33;;;1.23;;
34403;SDS011;23116;47.660;9.126;2024-02-26T11:18:23;0.90;;;0.90;;
34403;SDS011;23116;47.660;9.126;2024-02-26T11:20:54;1.35;;;1.10;;
34403;SDS011;23116;47.660;9.126;2024-02-26T11:23:23;1.42;;;1.33;;
34403;SDS011;23116;47.660;9.126;2024-02-26T11:25:50;1.27;;;0.93;;
34403;SDS011;23116;47.660;9.126;2024-02-26T11:28:22;1.00;;;1.00;;
34403;SDS011;23116;47.660;9.126;2024-02-26T11:30:49;1.83;;;1.08;;
34403;SDS011;23116;47.660;9.126;2024-02-26T11:33:18;1.20;;;1.10;;
34403;SDS011;23116;47.660;9.126;2024-02-26T11:35:45;1.23;;;1.10;;
34403;SDS011;23116;47.660;9.126;2024-02-26T11:38:23;1.83;;;1.42;;
34403;SDS011;23116;47.660;9.126;2024-02-26T11:40:52;2.08;;;1.42;;
34403;SDS011;23116;47.660;9.126;2024-02-26T11:43:23;1.92;;;0.93;;
34403;SDS011;23116;47.660;9.126;2024-02-26T11:46:30;1.40;;;1.30;;
34403;SDS011;23116;47.660;9.126;2024-02-26T11:49:29;1.80;;;1.20;;
34403;SDS011;23116;47.660;9.126;2024-02-26T11:51:54;1.75;;;1.50;;
34403;SDS011;23116;47.660;9.126;2024-02-26T11:54:38;1.65;;;1.35;;
34403;SDS011;23116;47.660;9.126;2024-02-26T12:02:41;1.23;;;1.15;;
34403;SDS011;23116;47.660;9.126;2024-02-26T12:05:13;1.35;;;1.25;;
34403;SDS011;23116;47.660;9.126;2024-02-26T12:07:55;1.73;;;1.15;;
34403;SDS011;23116;47.660;9.126;2024-02-26T12:10:32;1.73;;;1.25;;
34403;SDS011;23116;47.660;9.126;2024-02-26T12:13:11;1.40;;;1.30;;
34403;SDS011;23116;47.660;9.126;2024-02-26T12:15:44;1.77;;;1.45;;
34403;SDS011;23116;47.660;9.126;2024-02-26T12:18:21;1.25;;;1.15;;
34403;SDS011;23116;47.660;9.126;2024-02-26T12:20:58;1.40;;;1.30;;
34403;SDS011;23116;47.660;9.126;2024-02-26T12:23:29;1.38;;;1.27;;
34403;SDS011;23116;47.660;9.126;2024-02-26T12:25:59;1.95;;;1.20;;
34403;SDS011;23116;47.660;9.126;2024-02-26T12:28:30;1.05;;;1.00;;
34403;SDS011;23116;47.660;9.126;2024-02-26T12:30:58;2.10;;;1.20;;
34403;SDS011;23116;47.660;9.126;2024-02-26T12:33:25;0.90;;;0.90;;
34403;SDS011;23116;47.660;9.126;2024-02-26T12:35:53;2.45;;;1.40;;
34403;SDS011;23116;47.660;9.126;2024-02-26T12:38:20;1.42;;;1.33;;
34403;SDS011;23116;47.660;9.126;2024-02-26T12:40:47;1.60;;;1.50;;
34403;SDS011;23116;47.660;9.126;2024-02-26T12:43:15;1.50;;;1.40;;
34403;SDS011;23116;47.660;9.126;2024-02-26T12:45:42;1.30;;;1.00;;
34403;SDS011;23116;47.660;9.126;2024-02-26T12:48:12;2.85;;;1.17;;
34403;SDS011;23116;47.660;9.126;2024-02-26T12:50:39;1.30;;;1.20;;
34403;SDS011;23116;47.660;9.126;2024-02-26T12:53:12;1.40;;;1.30;;
34403;SDS011;23116;47.660;9.126;2024-02-26T12:55:40;1.65;;;1.55;;
34403;SDS011;23116;47.660;9.126;2024-02-26T12:58:07;2.25;;;1.48;;
34403;SDS011;23116;47.660;9.126;2024-02-26T13:00:35;1.65;;;1.52;;
34403;SDS011;23116;47.660;9.126;2024-02-26T13:03:03;1.85;;;1.50;;
34403;SDS011;23116;47.660;9.126;2024-02-26T13:05:31;1.50;;;1.40;;
34403;SDS011;23116;47.660;9.126;2024-02-26T13:07:59;2.35;;;1.83;;
34403;SDS011;23116;47.660;9.126;2024-02-26T13:10:26;1.80;;;1.70;;
34403;SDS011;23116;47.660;9.126;2024-02-26T13:12:54;1.90;;;1.80;;
34403;SDS011;23116;47.660;9.126;2024-02-26T13:15:22;2.40;;;1.50;;
34403;SDS011;23116;47.660;9.126;2024-02-26T13:17:49;1.33;;;1.15;;
34403;SDS011;23116;47.660;9.126;2024-02-26T13:20:28;1.65;;;1.55;;
34403;SDS011;23116;47.660;9.126;2024-02-26T13:25:30;1.42;;;1.33;;
34403;SDS011;23116;47.660;9.126;2024-02-26T13:30:55;1.65;;;1.20;;
34403;SDS011;23116;47.660;9.126;2024-02-26T13:33:25;1.70;;;1.60;;
34403;SDS011;23116;47.660;9.126;2024-02-26T13:35:57;2.08;;;1.52;;
34403;SDS011;23116;47.660;9.126;2024-02-26T13:38:26;1.93;;;1.67;;
34403;SDS011;23116;47.660;9.126;2024-02-26T13:40:53;2.13;;;1.48;;
34403;SDS011;23116;47.660;9.126;2024-02-26T13:43:21;1.38;;;1.27;;
34403;SDS011;23116;47.660;9.126;2024-02-26T13:45:48;1.83;;;1.55;;
34403;SDS011;23116;47.660;9.126;2024-02-26T13:48:16;1.48;;;1.38;;
34403;SDS011;23116;47.660;9.126;2024-02-26T13:50:43;2.05;;;1.60;;
34403;SDS011;23116;47.660;9.126;2024-02-26T13:53:10;1.60;;;1.50;;
34403;SDS011;23116;47.660;9.126;2024-02-26T13:55:39;1.75;;;1.65;;
34403;SDS011;23116;47.660;9.126;2024-02-26T13:58:08;1.75;;;1.63;;
34403;SDS011;23116;47.660;9.126;2024-02-26T14:00:38;3.97;;;1.48;;
34403;SDS011;23116;47.660;9.126;2024-02-26T14:03:06;3.92;;;1.80;;
34403;SDS011;23116;47.660;9.126;2024-02-26T14:05:33;1.70;;;1.60;;
34403;SDS011;23116;47.660;9.126;2024-02-26T14:08:01;1.67;;;1.58;;
34403;SDS011;23116;47.660;9.126;2024-02-26T14:10:29;1.70;;;1.60;;
34403;SDS011;23116;47.660;9.126;2024-02-26T14:12:56;1.80;;;1.52;;
34403;SDS011;23116;47.660;9.126;2024-02-26T14:15:24;1.48;;;1.38;;
34403;SDS011;23116;47.660;9.126;2024-02-26T14:17:54;2.08;;;1.52;;
34403;SDS011;23116;47.660;9.126;2024-02-26T14:20:23;2.13;;;1.30;;
34403;SDS011;23116;47.660;9.126;2024-02-26T14:22:50;2.35;;;1.52;;
34403;SDS011;23116;47.660;9.126;2024-02-26T14:25:21;2.72;;;1.75;;
34403;SDS011;23116;47.660;9.126;2024-02-26T14:27:49;1.45;;;1.35;;
34403;SDS011;23116;47.660;9.126;2024-02-26T14:30:16;1.80;;;1.52;;
34403;SDS011;23116;47.660;9.126;2024-02-26T14:32:43;1.48;;;1.38;;
34403;SDS011;23116;47.660;9.126;2024-02-26T14:35:11;2.22;;;1.42;;
34403;SDS011;23116;47.660;9.126;2024-02-26T14:37:38;1.40;;;1.30;;
34403;SDS011;23116;47.660;9.126;2024-02-26T14:40:05;4.82;;;2.00;;
34403;SDS011;23116;47.660;9.126;2024-02-26T14:42:33;1.70;;;1.60;;
34403;SDS011;23116;47.660;9.126;2024-02-26T14:45:00;1.90;;;1.52;;
34403;SDS011;23116;47.660;9.126;2024-02-26T14:47:29;2.30;;;1.50;;
34403;SDS011;23116;47.660;9.126;2024-02-26T14:49:57;1.67;;;1.58;;
34403;SDS011;23116;47.660;9.126;2024-02-26T14:52:24;1.95;;;1.50;;
34403;SDS011;23116;47.660;9.126;2024-02-26T14:54:51;1.75;;;1.30;;
34403;SDS011;23116;47.660;9.126;2024-02-26T14:57:18;2.45;;;1.48;;
34403;SDS011;23116;47.660;9.126;2024-02-26T14:59:45;2.92;;;2.00;;
34403;SDS011;23116;47.660;9.126;2024-02-26T15:02:14;2.15;;;1.73;;
34403;SDS011;23116;47.660;9.126;2024-02-26T15:04:41;2.00;;;1.70;;
34403;SDS011;23116;47.660;9.126;2024-02-26T15:07:09;1.77;;;1.67;;
34403;SDS011;23116;47.660;9.126;2024-02-26T15:09:37;1.80;;;1.60;;
34403;SDS011;23116;47.660;9.126;2024-02-26T15:12:05;1.98;;;1.77;;
34403;SDS011;23116;47.660;9.126;2024-02-26T15:14:33;2.05;;;1.88;;
34403;SDS011;23116;47.660;9.126;2024-02-26T15:17:00;2.17;;;1.98;;
34403;SDS011;23116;47.660;9.126;2024-02-26T15:19:28;2.35;;;2.15;;
34403;SDS011;23116;47.660;9.126;2024-02-26T15:21:55;5.45;;;2.53;;
34403;SDS011;23116;47.660;9.126;2024-02-26T15:24:22;3.28;;;2.53;;
34403;SDS011;23116;47.660;9.126;2024-02-26T15:26:49;3.20;;;2.90;;
34403;SDS011;23116;47.660;9.126;2024-02-26T15:29:16;2.97;;;2.67;;
34403;SDS011;23116;47.660;9.126;2024-02-26T15:31:43;2.90;;;2.42;;
34403;SDS011;23116;47.660;9.126;2024-02-26T15:34:10;2.17;;;1.90;;
34403;SDS011;23116;47.660;9.126;2024-02-26T15:36:37;7.03;;;2.00;;
34403;SDS011;23116;47.660;9.126;2024-02-26T15:39:05;1.95;;;1.75;;
34403;SDS011;23116;47.660;9.126;2024-02-26T15:41:32;2.17;;;1.63;;
34403;SDS011;23116;47.660;9.126;2024-02-26T15:43:59;1.88;;;1.73;;
34403;SDS011;23116;47.660;9.126;2024-02-26T15:46:26;1.92;;;1.70;;
34403;SDS011;23116;47.660;9.126;2024-02-26T15:48:54;1.98;;;1.77;;
34403;SDS011;23116;47.660;9.126;2024-02-26T15:51:21;2.83;;;1.80;;
34403;SDS011;23116;47.660;9.126;2024-02-26T15:53:49;2.00;;;1.67;;
34403;SDS011;23116;47.660;9.126;2024-02-26T15:56:17;1.33;;;1.20;;
34403;SDS011;23116;47.660;9.126;2024-02-26T15:58:48;1.25;;;1.15;;
34403;SDS011;23116;47.660;9.126;2024-02-26T16:01:18;1.80;;;1.60;;
34403;SDS011;23116;47.660;9.126;2024-02-26T16:03:46;1.42;;;1.30;;
34403;SDS011;23116;47.660;9.126;2024-02-26T16:09:15;1.67;;;1.30;;
34403;SDS011;23116;47.660;9.126;2024-02-26T16:11:42;3.08;;;1.30;;
34403;SDS011;23116;47.660;9.126;2024-02-26T16:17:36;2.50;;;2.08;;
34403;SDS011;23116;47.660;9.126;2024-02-26T16:20:01;3.50;;;1.80;;
34403;SDS011;23116;47.660;9.126;2024-02-26T16:22:29;2.10;;;1.70;;
34403;SDS011;23116;47.660;9.126;2024-02-26T16:24:57;1.55;;;1.42;;
34403;SDS011;23116;47.660;9.126;2024-02-26T16:27:24;1.42;;;1.15;;
34403;SDS011;23116;47.660;9.126;2024-02-26T16:29:51;1.27;;;1.17;;
34403;SDS011;23116;47.660;9.126;2024-02-26T16:32:18;1.52;;;1.42;;
34403;SDS011;23116;47.660;9.126;2024-02-26T16:34:47;2.28;;;2.08;;
34403;SDS011;23116;47.660;9.126;2024-02-26T16:37:14;1.83;;;1.65;;